Time;durP1;ratioP1;P1;durP2;ratioP2;P2;SDS_P1;SDS_P2;PMS_P1;PMS_P2;Temp;Humidity;BMP_temperature;BMP_pressure;BME280_temperature;BME280_humidity;BME280_pressure;Samples;Min_cycle;Max_cycle;Signal;HPM_P1;HPM_P2
2023/02/25 00:00:29;;;;;;;;;;;;;;;25.45;25.61;100172.44;5079064;28;1174;-16
2023/02/25 00:02:54;;;;;;;;;;;;;;;25.54;25.56;100167.81;5077414;28;2248;-16
2023/02/25 00:05:20;;;;;;;;;;;;;;;25.54;25.58;100170.50;5061282;28;1106;-16
2023/02/25 00:07:45;;;;;;;;;;;;;;;25.52;25.57;100169.84;5070112;28;1068;-16
2023/02/25 00:10:11;;;;;;;;;;;;;;;25.70;25.70;100164.09;5083546;28;1047;-15
2023/02/25 00:12:37;;;;;;;;;;;;;;;25.50;25.57;100148.47;5087327;28;1914;-15
2023/02/25 00:15:02;;;;;;;;;;;;;;;25.50;25.39;100148.47;5082265;28;1126;-15
2023/02/25 00:17:28;;;;;;;;;;;;;;;25.51;25.31;100142.06;5076046;28;1126;-16
2023/02/25 00:19:56;;;;;;;;;;;;;;;25.33;25.79;100145.13;5076911;28;1063;-15
2023/02/25 00:22:21;;;;;;;;;;;;;;;25.46;25.60;100149.88;5078744;28;1190;-15
2023/02/25 00:24:46;;;;;;;;;;;;;;;25.49;25.36;100141.41;5078822;28;1170;-15
2023/02/25 00:27:11;;;;;;;;;;;;;;;25.46;25.38;100133.72;5082638;28;1174;-15
2023/02/25 00:29:37;;;;;;;;;;;;;;;25.61;25.40;100131.00;5061382;28;1138;-15
2023/02/25 00:32:02;;;;;;;;;;;;;;;25.35;25.61;100134.19;5078103;28;2308;-15
2023/02/25 00:34:27;;;;;;;;;;;;;;;25.47;25.51;100127.31;5076780;28;1067;-15
2023/02/25 00:36:53;;;;;;;;;;;;;;;25.58;25.37;100126.00;5078665;28;1165;-15
2023/02/25 00:39:18;;;;;;;;;;;;;;;25.48;25.66;100128.13;5082566;28;1095;-15
2023/02/25 00:41:43;;;;;;;;;;;;;;;25.56;25.42;100122.66;5075152;28;1438;-15
2023/02/25 00:44:09;;;;;;;;;;;;;;;25.65;25.61;100124.25;5058229;28;1151;-15
2023/02/25 00:46:34;;;;;;;;;;;;;;;25.64;25.61;100113.69;5058550;28;1083;-15
2023/02/25 00:49:00;;;;;;;;;;;;;;;25.60;25.71;100120.41;5076689;28;1104;-15
2023/02/25 00:51:26;;;;;;;;;;;;;;;25.58;25.73;100120.59;5081925;28;1110;-16
2023/02/25 00:53:51;;;;;;;;;;;;;;;25.57;25.60;100108.19;5079888;28;1897;-15
2023/02/25 00:56:18;;;;;;;;;;;;;;;25.46;25.76;100108.66;5078208;28;1059;-15
2023/02/25 00:58:44;;;;;;;;;;;;;;;25.50;25.86;100112.63;5077905;28;1038;-15
2023/02/25 01:01:23;;;;;;;;;;;;;;;25.75;25.56;100104.25;5078220;28;1108;-15
2023/02/25 01:03:48;;;;;;;;;;;;;;;25.57;25.72;100100.09;5068869;28;2509;-15
2023/02/25 01:06:14;;;;;;;;;;;;;;;25.53;25.83;100094.25;5059548;28;1234;-15
2023/02/25 01:08:39;;;;;;;;;;;;;;;25.60;25.56;100086.25;5077944;28;1115;-15
2023/02/25 01:11:12;;;;;;;;;;;;;;;25.47;25.62;100088.78;5077777;28;1558;-14
2023/02/25 01:13:37;;;;;;;;;;;;;;;25.41;25.98;100084.97;5077906;28;1962;-15
2023/02/25 01:16:08;;;;;;;;;;;;;;;25.55;25.73;100084.13;5077597;28;933;-15
2023/02/25 01:18:33;;;;;;;;;;;;;;;25.49;25.81;100079.47;5077501;28;1063;-15
2023/02/25 01:20:59;;;;;;;;;;;;;;;25.57;25.45;100067.78;5077809;28;1225;-15
2023/02/25 01:23:24;;;;;;;;;;;;;;;25.47;25.59;100070.78;5077143;28;1173;-16
2023/02/25 01:25:50;;;;;;;;;;;;;;;25.49;25.60;100070.56;5077396;28;1063;-15
2023/02/25 01:28:15;;;;;;;;;;;;;;;25.39;25.72;100071.69;5070097;28;1047;-15
2023/02/25 01:30:40;;;;;;;;;;;;;;;25.57;25.56;100057.00;5072095;28;1039;-15
2023/02/25 01:33:05;;;;;;;;;;;;;;;25.35;25.64;100065.03;5083510;28;2473;-15
2023/02/25 01:35:31;;;;;;;;;;;;;;;25.57;25.67;100057.00;5077364;28;1106;-15
2023/02/25 01:37:56;;;;;;;;;;;;;;;25.34;25.66;100049.06;5085300;28;1170;-14
2023/02/25 01:40:22;;;;;;;;;;;;;;;25.58;25.50;100053.28;5090636;28;1046;-15
2023/02/25 01:42:48;;;;;;;;;;;;;;;25.52;25.63;100060.28;5077455;28;1026;-15
2023/02/25 01:45:19;;;;;;;;;;;;;;;25.38;25.53;100056.56;5077254;28;1099;-15
2023/02/25 01:48:04;;;;;;;;;;;;;;;25.60;25.49;100045.84;5077007;28;1202;-15
2023/02/25 01:50:35;;;;;;;;;;;;;;;25.54;25.56;100047.44;5076408;28;1364;-15
2023/02/25 01:53:00;;;;;;;;;;;;;;;25.54;25.32;100046.63;5049464;28;1890;-15
2023/02/25 01:55:25;;;;;;;;;;;;;;;25.36;25.68;100050.53;5056478;28;1122;-15
2023/02/25 01:57:51;;;;;;;;;;;;;;;25.49;25.53;100055.22;5059174;28;1174;-15
2023/02/25 02:00:16;;;;;;;;;;;;;;;25.47;25.38;100049.22;5076585;28;1011;-15
2023/02/25 02:02:45;;;;;;;;;;;;;;;25.27;25.76;100054.34;5052495;28;1860;-15
2023/02/25 02:05:11;;;;;;;;;;;;;;;25.46;25.30;100041.34;5067419;28;1442;-15
2023/02/25 02:07:36;;;;;;;;;;;;;;;25.46;25.42;100044.03;5059379;28;1205;-15
2023/02/25 02:10:02;;;;;;;;;;;;;;;25.41;25.64;100047.28;5063224;28;1182;-15
2023/02/25 02:12:30;;;;;;;;;;;;;;;25.49;25.23;100049.84;5076464;28;1910;-15
2023/02/25 02:14:56;;;;;;;;;;;;;;;25.50;25.25;100045.31;5058416;28;1130;-15
2023/02/25 02:17:24;;;;;;;;;;;;;;;25.50;25.22;100038.06;5069635;28;959;-15
2023/02/25 02:19:59;;;;;;;;;;;;;;;25.65;25.36;100048.00;5073305;28;1155;-15
2023/02/25 02:22:36;;;;;;;;;;;;;;;25.39;25.65;100034.00;5076539;28;1134;-15
2023/02/25 02:25:11;;;;;;;;;;;;;;;25.53;25.34;100045.78;5076157;28;1083;-15
2023/02/25 02:27:38;;;;;;;;;;;;;;;25.46;25.30;100044.03;5076173;28;1139;-15
2023/02/25 02:30:22;;;;;;;;;;;;;;;25.44;25.45;100036.97;5076196;28;974;-15
2023/02/25 02:32:56;;;;;;;;;;;;;;;25.41;25.61;100040.03;5081246;28;2284;-15
2023/02/25 02:35:41;;;;;;;;;;;;;;;25.42;25.31;100041.69;5075889;28;1106;-15
2023/02/25 02:38:12;;;;;;;;;;;;;;;25.51;25.23;100034.34;5064842;28;1110;-15
2023/02/25 02:40:57;;;;;;;;;;;;;;;25.45;25.55;100032.41;5079352;28;1476;-15
2023/02/25 02:43:40;;;;;;;;;;;;;;;25.40;25.31;100026.75;5067424;28;1174;-15
2023/02/25 02:46:17;;;;;;;;;;;;;;;25.26;25.53;100028.44;5062889;28;1012;-16
2023/02/25 02:49:00;;;;;;;;;;;;;;;25.39;25.49;100019.72;5075693;28;1451;-15
2023/02/25 02:51:27;;;;;;;;;;;;;;;25.27;25.74;100024.75;5075645;28;1061;-15
2023/02/25 02:53:53;;;;;;;;;;;;;;;25.54;25.27;100022.38;5070452;28;1899;-15
2023/02/25 02:56:18;;;;;;;;;;;;;;;25.42;25.47;100019.34;5057482;28;1054;-15
2023/02/25 02:58:46;;;;;;;;;;;;;;;25.71;25.15;100022.16;5057803;28;1032;-15
2023/02/25 03:01:14;;;;;;;;;;;;;;;25.38;25.42;100010.81;5057750;28;1112;-15
2023/02/25 03:03:40;;;;;;;;;;;;;;;25.30;25.79;100008.22;5065551;28;2364;-15
2023/02/25 03:06:13;;;;;;;;;;;;;;;25.43;25.49;100011.06;5064541;28;913;-15
2023/02/25 03:08:43;;;;;;;;;;;;;;;25.25;26.05;100014.19;5057832;28;1210;-15
2023/02/25 03:11:09;;;;;;;;;;;;;;;25.36;25.68;100009.34;5075632;28;1201;-15
2023/02/25 03:13:34;;;;;;;;;;;;;;;25.42;25.79;100004.00;5075885;28;1958;-15
2023/02/25 03:15:59;;;;;;;;;;;;;;;25.44;25.60;100010.03;5057846;28;1110;-14
2023/02/25 03:18:29;;;;;;;;;;;;;;;25.47;25.52;100008.00;5058517;28;954;-15
2023/02/25 03:20:54;;;;;;;;;;;;;;;25.25;25.89;100000.72;5075900;28;1107;-15
2023/02/25 03:23:21;;;;;;;;;;;;;;;25.43;25.49;100005.69;5075494;28;1130;-15
2023/02/25 03:25:50;;;;;;;;;;;;;;;25.64;25.52;100003.25;5058270;28;1114;-15
2023/02/25 03:28:27;;;;;;;;;;;;;;;25.76;25.15;100012.47;5059355;28;1086;-15
2023/02/25 03:31:12;;;;;;;;;;;;;;;25.33;25.69;99998.91;5067229;28;1082;-15
2023/02/25 03:33:46;;;;;;;;;;;;;;;25.50;25.53;100003.06;5069432;28;2432;-15
2023/02/25 03:36:12;;;;;;;;;;;;;;;25.39;25.72;100003.56;5079496;28;1089;-15
2023/02/25 03:38:39;;;;;;;;;;;;;;;25.31;25.67;100004.50;5061873;28;1046;-15
2023/02/25 03:41:06;;;;;;;;;;;;;;;25.44;25.24;99996.56;5058109;28;1079;-15
2023/02/25 03:43:32;;;;;;;;;;;;;;;25.58;25.13;99995.88;5071724;28;1078;-15
2023/02/25 03:45:58;;;;;;;;;;;;;;;25.38;25.73;99994.66;5061542;28;1079;-15
2023/02/25 03:48:23;;;;;;;;;;;;;;;25.35;25.51;99994.19;5061294;28;1067;-15
2023/02/25 03:50:52;;;;;;;;;;;;;;;25.39;25.38;99982.84;5079019;28;1481;-15
2023/02/25 03:53:18;;;;;;;;;;;;;;;25.53;25.28;99986.53;5087835;28;1913;-15
2023/02/25 03:55:43;;;;;;;;;;;;;;;25.37;25.69;99986.75;5059720;28;1102;-15
2023/02/25 03:58:08;;;;;;;;;;;;;;;25.47;25.29;99986.44;5041937;28;1143;-15
2023/02/25 04:00:34;;;;;;;;;;;;;;;25.48;25.33;99988.09;5078410;28;1056;-15
2023/02/25 04:02:59;;;;;;;;;;;;;;;25.74;25.09;99989.47;5039457;28;2259;-15
2023/02/25 04:05:27;;;;;;;;;;;;;;;25.40;25.44;99986.38;5075480;28;1086;-15
2023/02/25 04:07:53;;;;;;;;;;;;;;;25.55;25.06;99984.47;5071354;28;1155;-15
2023/02/25 04:10:19;;;;;;;;;;;;;;;25.67;24.88;99976.75;5079302;28;1086;-15
2023/02/25 04:12:44;;;;;;;;;;;;;;;25.65;25.04;99981.50;5078624;28;1913;-14
2023/02/25 04:15:10;;;;;;;;;;;;;;;25.55;25.40;99984.47;5078872;28;1135;-15
2023/02/25 04:17:35;;;;;;;;;;;;;;;25.69;25.26;99973.88;5087802;28;1115;-15
2023/02/25 04:20:00;;;;;;;;;;;;;;;25.59;25.39;99976.84;5079298;28;1116;-15
2023/02/25 04:22:25;;;;;;;;;;;;;;;25.76;24.88;99971.22;5078405;28;991;-15
2023/02/25 04:24:51;;;;;;;;;;;;;;;25.63;25.20;99966.53;5078845;28;1185;-15
2023/02/25 04:27:16;;;;;;;;;;;;;;;25.53;25.34;99969.53;5078546;28;1058;-15
2023/02/25 04:29:42;;;;;;;;;;;;;;;25.56;25.32;99967.28;5077842;28;1143;-15
2023/02/25 04:32:07;;;;;;;;;;;;;;;25.52;25.46;99965.19;5076646;28;2434;-15
2023/02/25 04:34:32;;;;;;;;;;;;;;;25.48;25.64;99971.97;5077364;28;1269;-15
2023/02/25 04:37:01;;;;;;;;;;;;;;;25.65;25.27;99970.72;5078682;28;1158;-15
2023/02/25 04:39:26;;;;;;;;;;;;;;;25.64;25.50;99968.22;5078227;28;1257;-15
2023/02/25 04:41:51;;;;;;;;;;;;;;;25.71;24.93;99963.72;5087954;28;1122;-15
2023/02/25 04:44:16;;;;;;;;;;;;;;;25.62;25.70;99956.78;5066399;28;1194;-15
2023/02/25 04:46:42;;;;;;;;;;;;;;;25.63;25.49;99959.31;5077996;28;1134;-14
2023/02/25 04:49:08;;;;;;;;;;;;;;;25.57;25.50;99960.06;5077985;28;1115;-15
2023/02/25 04:51:34;;;;;;;;;;;;;;;24.67;25.10;99961.03;5078262;28;1012;-14
2023/02/25 04:54:00;;;;;;;;;;;;;;;24.48;26.13;99957.88;5088465;28;1963;-14
2023/02/25 04:56:25;;;;;;;;;;;;;;;25.64;24.77;99969.03;5085587;28;1006;-15
2023/02/25 04:58:50;;;;;;;;;;;;;;;27.27;23.62;99959.34;5077949;28;1066;-15
2023/02/25 05:01:16;;;;;;;;;;;;;;;28.42;21.89;99955.91;5077608;28;1111;-15
2023/02/25 05:03:41;;;;;;;;;;;;;;;28.69;21.33;99964.81;5073822;28;1856;-15
2023/02/25 05:06:06;;;;;;;;;;;;;;;28.57;20.83;99969.19;5079559;28;1039;-15
2023/02/25 05:08:32;;;;;;;;;;;;;;;28.13;21.47;99976.94;5062399;28;1079;-15
2023/02/25 05:10:57;;;;;;;;;;;;;;;28.58;20.77;99978.97;5068942;28;1266;-14
2023/02/25 05:13:23;;;;;;;;;;;;;;;27.97;20.91;99987.13;5077422;28;1913;-14
2023/02/25 05:15:48;;;;;;;;;;;;;;;27.84;21.02;99977.97;5077723;28;1015;-14
2023/02/25 05:18:13;;;;;;;;;;;;;;;27.77;20.69;99968.19;5083675;28;1090;-14
2023/02/25 05:20:42;;;;;;;;;;;;;;;27.90;20.71;99973.59;5077381;28;1038;-14
2023/02/25 05:23:08;;;;;;;;;;;;;;;27.99;20.81;99976.94;5077682;28;1217;-15
2023/02/25 05:25:33;;;;;;;;;;;;;;;27.86;20.62;99973.19;5077409;28;1071;-15
2023/02/25 05:27:59;;;;;;;;;;;;;;;27.79;20.52;99980.47;5077423;28;1118;-15
2023/02/25 05:30:24;;;;;;;;;;;;;;;28.09;20.18;99971.94;5077249;28;891;-14
2023/02/25 05:32:49;;;;;;;;;;;;;;;28.05;20.12;99965.28;5081572;28;2468;-14
2023/02/25 05:35:15;;;;;;;;;;;;;;;27.92;20.04;99978.81;5077524;28;1063;-15
2023/02/25 05:37:40;;;;;;;;;;;;;;;28.00;20.32;99970.50;5073533;28;983;-14
2023/02/25 05:40:08;;;;;;;;;;;;;;;27.53;20.25;99976.66;5067813;28;995;-14
2023/02/25 05:42:33;;;;;;;;;;;;;;;27.73;20.31;99967.75;5084341;28;1071;-14
2023/02/25 05:44:58;;;;;;;;;;;;;;;27.94;20.42;99977.56;5077320;28;1034;-14
2023/02/25 05:47:24;;;;;;;;;;;;;;;27.82;20.42;99982.75;5076885;28;1182;-15
2023/02/25 05:49:49;;;;;;;;;;;;;;;26.13;22.00;99976.53;5077170;28;1109;-15
2023/02/25 05:52:14;;;;;;;;;;;;;;;24.37;24.22;99983.38;5073968;28;1961;-14
2023/02/25 05:54:40;;;;;;;;;;;;;;;26.50;22.24;99981.78;5078368;28;907;-14
2023/02/25 05:57:05;;;;;;;;;;;;;;;27.27;21.15;99967.44;5077244;28;1079;-14
2023/02/25 05:59:30;;;;;;;;;;;;;;;27.63;21.09;99965.44;5065008;28;2427;-14
2023/02/25 06:01:56;;;;;;;;;;;;;;;27.85;21.00;99965.28;5074316;28;1175;-14
2023/02/25 06:04:21;;;;;;;;;;;;;;;27.82;20.79;99965.69;5077422;28;1074;-14
2023/02/25 06:06:49;;;;;;;;;;;;;;;27.20;21.75;99966.59;5082366;28;1534;-14
2023/02/25 06:09:17;;;;;;;;;;;;;;;26.53;22.32;99970.59;5056736;28;1206;-14
2023/02/25 06:11:42;;;;;;;;;;;;;;;27.49;21.85;99973.50;5091342;28;1910;-13
2023/02/25 06:14:08;;;;;;;;;;;;;;;27.27;21.75;99975.56;5096990;28;1078;-14
2023/02/25 06:16:33;;;;;;;;;;;;;;;28.08;20.99;99969.44;5096513;28;1034;-14
2023/02/25 06:18:59;;;;;;;;;;;;;;;27.66;21.31;99969.63;5078245;28;1207;-13
2023/02/25 06:21:25;;;;;;;;;;;;;;;27.95;21.24;99973.81;5093925;28;1043;-13
2023/02/25 06:23:50;;;;;;;;;;;;;;;27.69;21.18;99971.94;5078331;28;1154;-16
2023/02/25 06:26:15;;;;;;;;;;;;;;;26.20;23.08;99969.31;5073633;28;1178;-14
2023/02/25 06:28:41;;;;;;;;;;;;;;;26.55;23.15;99975.81;5084049;28;1084;-15
2023/02/25 06:31:09;;;;;;;;;;;;;;;26.99;22.17;99977.28;5091191;28;908;-13
2023/02/25 06:33:35;;;;;;;;;;;;;;;27.21;22.24;99970.97;5096333;28;1967;-14
2023/02/25 06:36:00;;;;;;;;;;;;;;;27.31;21.86;99960.59;5082885;28;1133;-14
2023/02/25 06:38:25;;;;;;;;;;;;;;;27.69;21.63;99961.97;5057886;28;912;-15
2023/02/25 06:40:51;;;;;;;;;;;;;;;27.73;21.31;99965.06;5083431;28;1009;-14
2023/02/25 06:43:16;;;;;;;;;;;;;;;27.66;21.95;99973.13;5075932;28;998;-14
2023/02/25 06:45:41;;;;;;;;;;;;;;;26.45;23.19;99971.59;5096644;28;1058;-14
2023/02/25 06:48:07;;;;;;;;;;;;;;;26.23;23.40;99976.19;5096349;28;1118;-14
2023/02/25 06:50:32;;;;;;;;;;;;;;;27.01;22.51;99979.78;5090015;28;1123;-14
2023/02/25 06:52:58;;;;;;;;;;;;;;;27.63;21.67;99974.38;5064433;28;1987;-14
2023/02/25 06:55:24;;;;;;;;;;;;;;;27.85;21.58;99973.41;5096060;28;866;-14
2023/02/25 06:57:49;;;;;;;;;;;;;;;28.01;21.38;99979.44;5083099;28;1145;-14
2023/02/25 07:00:15;;;;;;;;;;;;;;;27.67;21.72;99971.25;5096398;28;1086;-14
2023/02/25 07:02:40;;;;;;;;;;;;;;;26.25;23.13;99971.44;5093738;28;1043;-14
2023/02/25 07:05:05;;;;;;;;;;;;;;;26.34;23.44;99972.16;5089323;28;1091;-14
2023/02/25 07:07:31;;;;;;;;;;;;;;;25.91;23.80;99972.00;5058014;28;911;-14
2023/02/25 07:09:56;;;;;;;;;;;;;;;25.75;24.32;99978.50;5078764;28;1054;-14
2023/02/25 07:12:21;;;;;;;;;;;;;;;26.67;23.03;99976.09;5095801;28;1910;-15
2023/02/25 07:14:48;;;;;;;;;;;;;;;27.24;22.58;99984.88;5074982;28;1829;-14
2023/02/25 07:17:13;;;;;;;;;;;;;;;27.64;21.84;99988.72;5076025;28;1219;-14
2023/02/25 07:19:39;;;;;;;;;;;;;;;27.74;21.75;99986.47;5086090;28;814;-15
2023/02/25 07:22:04;;;;;;;;;;;;;;;28.10;21.33;99983.59;5075862;28;1134;-15
2023/02/25 07:24:29;;;;;;;;;;;;;;;26.77;22.73;99976.56;5075795;28;1042;-14
2023/02/25 07:26:55;;;;;;;;;;;;;;;26.43;23.46;99980.91;5078568;28;1063;-15
2023/02/25 07:29:20;;;;;;;;;;;;;;;26.60;22.95;99978.75;5096112;28;1101;-14
2023/02/25 07:31:46;;;;;;;;;;;;;;;26.32;23.31;99972.31;5073474;28;1921;-15
2023/02/25 07:34:12;;;;;;;;;;;;;;;26.22;23.42;99969.97;5058941;28;1257;-15
2023/02/25 07:36:37;;;;;;;;;;;;;;;27.06;22.60;99966.53;5061461;28;1210;-15
2023/02/25 07:39:07;;;;;;;;;;;;;;;26.81;22.88;99966.22;5064379;28;1227;-15
2023/02/25 07:41:32;;;;;;;;;;;;;;;26.32;23.55;99961.53;5086035;28;1027;-15
2023/02/25 07:43:58;;;;;;;;;;;;;;;26.58;23.50;99960.06;5085291;28;1114;-15
2023/02/25 07:46:24;;;;;;;;;;;;;;;27.09;22.78;99965.31;5065517;28;1357;-15
2023/02/25 07:48:50;;;;;;;;;;;;;;;26.79;24.05;99966.41;5066532;28;1301;-15
2023/02/25 07:51:17;;;;;;;;;;;;;;;26.36;23.80;99962.81;5069597;28;1043;-15
2023/02/25 07:53:43;;;;;;;;;;;;;;;27.04;23.27;99967.78;5092001;28;1974;-15
2023/02/25 07:56:08;;;;;;;;;;;;;;;27.60;22.50;99974.78;5072587;28;991;-15
2023/02/25 07:58:33;;;;;;;;;;;;;;;26.80;23.42;99964.53;5065104;28;1231;-15
2023/02/25 08:00:59;;;;;;;;;;;;;;;26.48;23.54;99964.97;5066472;28;1294;-15
2023/02/25 08:03:24;;;;;;;;;;;;;;;27.49;22.44;99970.81;5060621;28;1313;-16
2023/02/25 08:05:50;;;;;;;;;;;;;;;27.03;23.19;99964.25;5061779;28;1247;-14
2023/02/25 08:08:15;;;;;;;;;;;;;;;26.38;23.83;99957.22;5083210;28;1286;-16
2023/02/25 08:10:41;;;;;;;;;;;;;;;26.35;24.25;99957.63;5077955;28;1030;-14
2023/02/25 08:13:06;;;;;;;;;;;;;;;26.94;23.53;99950.09;5080689;28;1980;-16
2023/02/25 08:15:32;;;;;;;;;;;;;;;26.71;23.57;99948.50;5093420;28;1098;-14
2023/02/25 08:17:57;;;;;;;;;;;;;;;27.13;23.13;99939.56;5099242;28;1054;-14
2023/02/25 08:20:23;;;;;;;;;;;;;;;27.73;22.39;99940.75;5088334;28;1106;-14
2023/02/25 08:22:48;;;;;;;;;;;;;;;26.97;23.17;99936.19;5079758;28;1123;-14
2023/02/25 08:25:13;;;;;;;;;;;;;;;26.75;23.80;99940.84;5098977;28;1112;-15
2023/02/25 08:27:39;;;;;;;;;;;;;;;26.19;23.72;99934.47;5098779;28;1066;-14
2023/02/25 08:30:07;;;;;;;;;;;;;;;26.74;23.17;99928.41;5098906;28;1057;-14
2023/02/25 08:32:34;;;;;;;;;;;;;;;26.39;23.85;99930.06;5085054;28;1967;-14
2023/02/25 08:34:59;;;;;;;;;;;;;;;26.36;23.86;99929.66;5096069;28;1042;-14
2023/02/25 08:37:25;;;;;;;;;;;;;;;27.23;22.91;99922.97;5098583;28;1026;-14
2023/02/25 08:39:53;;;;;;;;;;;;;;;26.85;23.15;99895.44;5095113;28;1050;-14
2023/02/25 08:42:18;;;;;;;;;;;;;;;26.56;23.93;99900.06;5079426;28;1043;-14
2023/02/25 08:44:43;;;;;;;;;;;;;;;27.07;22.97;99894.50;5095948;28;952;-14
2023/02/25 08:47:09;;;;;;;;;;;;;;;27.21;23.11;99901.59;5088231;28;1189;-14
2023/02/25 08:49:34;;;;;;;;;;;;;;;26.77;23.27;99903.72;5068680;28;1103;-14
2023/02/25 08:51:59;;;;;;;;;;;;;;;27.00;23.35;99897.97;5098526;28;1977;-14
2023/02/25 08:54:25;;;;;;;;;;;;;;;27.17;22.71;99883.31;5085165;28;1266;-14
2023/02/25 08:56:50;;;;;;;;;;;;;;;26.74;23.75;99874.44;5083358;28;865;-14
2023/02/25 08:59:15;;;;;;;;;;;;;;;26.55;23.75;99876.00;5098374;28;1109;-15
2023/02/25 09:01:43;;;;;;;;;;;;;;;27.26;22.97;99869.41;5097967;28;1142;-15
2023/02/25 09:04:09;;;;;;;;;;;;;;;26.76;23.81;99864.25;5089868;28;1062;-14
2023/02/25 09:06:35;;;;;;;;;;;;;;;26.76;23.73;99861.56;5073858;28;1106;-14
2023/02/25 09:09:00;;;;;;;;;;;;;;;27.38;23.28;99853.44;5088830;28;884;-14
2023/02/25 09:11:25;;;;;;;;;;;;;;;27.02;23.41;99860.03;5098391;28;1218;-14
2023/02/25 09:13:51;;;;;;;;;;;;;;;26.88;23.42;99851.00;5086632;28;1980;-14
2023/02/25 09:16:17;;;;;;;;;;;;;;;26.72;23.69;99836.03;5082952;28;1170;-14
2023/02/25 09:18:43;;;;;;;;;;;;;;;27.00;23.41;99835.06;5086729;28;1094;-14
2023/02/25 09:21:10;;;;;;;;;;;;;;;26.88;23.49;99819.47;5082177;28;861;-14
2023/02/25 09:23:35;;;;;;;;;;;;;;;27.18;23.35;99820.16;5097636;28;1045;-14
2023/02/25 09:26:02;;;;;;;;;;;;;;;27.41;22.64;99803.56;5071353;28;1054;-14
2023/02/25 09:28:27;;;;;;;;;;;;;;;27.00;23.04;99814.31;5085982;28;1217;-13
2023/02/25 09:30:53;;;;;;;;;;;;;;;26.11;23.33;99684.81;5090923;28;1118;-15
2023/02/25 09:33:18;;;;;;;;;;;;;;;27.19;23.34;99819.16;5047512;28;1973;-15
2023/02/25 09:35:44;;;;;;;;;;;;;;;27.23;22.86;99820.38;5068120;28;1207;-14
2023/02/25 09:38:10;;;;;;;;;;;;;;;27.13;23.06;99813.53;5062615;28;1226;-14
2023/02/25 09:40:35;;;;;;;;;;;;;;;27.65;22.58;99808.53;5069041;28;1028;-14
2023/02/25 09:43:06;;;;;;;;;;;;;;;27.43;22.41;99809.59;5078969;28;980;-14
2023/02/25 09:45:32;;;;;;;;;;;;;;;26.98;23.07;99796.66;5074126;28;1094;-15
2023/02/25 09:47:59;;;;;;;;;;;;;;;27.06;23.26;99796.47;5047476;28;1242;-14
2023/02/25 09:50:25;;;;;;;;;;;;;;;27.70;22.47;99784.44;5046978;28;1412;-14
2023/02/25 09:53:16;;;;;;;;;;;;;;;27.29;22.86;99791.72;5046571;28;1910;-14
2023/02/25 09:55:43;;;;;;;;;;;;;;;27.16;22.85;99781.75;5033026;28;1215;-15
2023/02/25 09:58:11;;;;;;;;;;;;;;;27.79;22.20;99771.56;5050150;28;1297;-15
2023/02/25 10:00:39;;;;;;;;;;;;;;;27.31;22.84;99765.38;5065816;28;1262;-14
2023/02/25 10:03:06;;;;;;;;;;;;;;;27.28;22.91;99753.09;5065471;28;1454;-14
2023/02/25 10:05:43;;;;;;;;;;;;;;;27.61;22.49;99746.00;5050757;28;1147;-14
2023/02/25 10:08:17;;;;;;;;;;;;;;;27.55;22.68;99755.78;5049750;28;1172;-14
2023/02/25 10:10:48;;;;;;;;;;;;;;;27.36;22.65;99733.97;5065784;28;1060;-14
2023/02/25 10:13:20;;;;;;;;;;;;;;;27.69;22.46;99734.16;5044902;28;1910;-14
2023/02/25 10:15:45;;;;;;;;;;;;;;;27.71;22.15;99732.09;5067603;28;1282;-14
2023/02/25 10:18:33;;;;;;;;;;;;;;;27.56;22.42;99743.91;5065707;28;1520;-14
2023/02/25 10:21:12;;;;;;;;;;;;;;;27.59;22.29;99724.56;5055837;28;1672;-14
2023/02/25 10:23:46;;;;;;;;;;;;;;;27.70;22.44;99723.16;5065407;28;1051;-14
2023/02/25 10:26:16;;;;;;;;;;;;;;;27.65;22.42;99708.56;5065317;28;1226;-14
2023/02/25 10:28:42;;;;;;;;;;;;;;;27.59;22.49;99699.47;5049998;28;1226;-14
2023/02/25 10:31:10;;;;;;;;;;;;;;;27.54;22.36;99692.00;5094957;28;1033;-15
2023/02/25 10:33:36;;;;;;;;;;;;;;;27.74;22.38;99685.72;5077160;28;1901;-15
2023/02/25 10:36:13;;;;;;;;;;;;;;;27.79;22.42;99682.38;5093990;28;1105;-14
2023/02/25 10:38:40;;;;;;;;;;;;;;;27.71;22.15;99691.56;5071016;28;1028;-15
2023/02/25 10:41:06;;;;;;;;;;;;;;;27.80;22.03;99676.75;5064189;28;1166;-15
2023/02/25 10:43:32;;;;;;;;;;;;;;;28.26;21.69;99675.94;5052484;28;1161;-14
2023/02/25 10:45:59;;;;;;;;;;;;;;;28.14;22.14;99673.06;5094778;28;981;-15
2023/02/25 10:48:25;;;;;;;;;;;;;;;28.22;21.98;99689.03;5072745;28;945;-14
2023/02/25 10:51:05;;;;;;;;;;;;;;;28.08;22.03;99667.47;5071356;28;1090;-14
2023/02/25 10:53:31;;;;;;;;;;;;;;;28.15;21.76;99672.00;5086567;28;1979;-14
2023/02/25 10:55:57;;;;;;;;;;;;;;;28.68;20.85;99673.59;5095634;28;1054;-15
2023/02/25 10:58:39;;;;;;;;;;;;;;;28.14;21.82;99670.38;5077791;28;1015;-14
2023/02/25 11:01:24;;;;;;;;;;;;;;;28.08;21.73;99678.28;5093361;28;1047;-15
2023/02/25 11:04:00;;;;;;;;;;;;;;;28.03;21.64;99674.59;5086370;28;1115;-14
2023/02/25 11:06:29;;;;;;;;;;;;;;;28.67;21.15;99680.06;5084458;28;1101;-15
2023/02/25 11:08:57;;;;;;;;;;;;;;;28.38;21.02;99663.38;5053314;28;1286;-15
2023/02/25 11:11:26;;;;;;;;;;;;;;;28.27;21.40;99650.53;5078003;28;1264;-14
2023/02/25 11:13:58;;;;;;;;;;;;;;;28.24;21.47;99649.09;5095779;28;1906;-14
2023/02/25 11:16:24;;;;;;;;;;;;;;;28.14;21.30;99660.41;5079000;28;1225;-14
2023/02/25 11:18:53;;;;;;;;;;;;;;;28.48;20.97;99654.78;5062286;28;1227;-14
2023/02/25 11:21:26;;;;;;;;;;;;;;;28.24;21.21;99639.09;5046122;28;1219;-15
2023/02/25 11:23:53;;;;;;;;;;;;;;;28.22;21.36;99622.28;5087599;28;1107;-15
2023/02/25 11:26:26;;;;;;;;;;;;;;;28.16;21.32;99625.84;5081720;28;1190;-14
2023/02/25 11:28:51;;;;;;;;;;;;;;;28.31;21.30;99613.91;5083317;28;1081;-14
2023/02/25 11:31:21;;;;;;;;;;;;;;;28.46;21.26;99610.91;5081328;28;1086;-14
2023/02/25 11:33:56;;;;;;;;;;;;;;;28.20;21.35;99607.31;5055987;28;1977;-14
2023/02/25 11:36:28;;;;;;;;;;;;;;;28.10;21.51;99621.31;5043694;28;1231;-14
2023/02/25 11:39:26;;;;;;;;;;;;;;;28.23;21.35;99605.00;5071233;28;1039;-14
2023/02/25 11:41:54;;;;;;;;;;;;;;;28.19;21.13;99619.19;5023658;28;1418;-14
2023/02/25 11:44:21;;;;;;;;;;;;;;;28.26;21.16;99624.53;5067743;28;1201;-14
2023/02/25 11:46:57;;;;;;;;;;;;;;;28.14;20.84;99608.19;5061521;28;1292;-16
2023/02/25 11:49:28;;;;;;;;;;;;;;;28.56;20.70;99594.19;5065963;28;1214;-15
2023/02/25 11:52:13;;;;;;;;;;;;;;;28.26;20.89;99601.00;5066755;28;1317;-15
2023/02/25 11:54:47;;;;;;;;;;;;;;;27.95;21.13;99589.16;5026852;28;1566;-15
2023/02/25 11:57:24;;;;;;;;;;;;;;;27.94;20.94;99592.91;5087402;28;1118;-15
2023/02/25 11:59:53;;;;;;;;;;;;;;;28.50;20.26;99601.28;5061516;28;1058;-15
2023/02/25 12:02:19;;;;;;;;;;;;;;;28.24;20.91;99592.31;5099874;28;1043;-14
2023/02/25 12:04:51;;;;;;;;;;;;;;;28.07;21.03;99598.25;5085549;28;1046;-14
2023/02/25 12:07:25;;;;;;;;;;;;;;;28.19;20.67;99601.09;5048366;28;1110;-15
2023/02/25 12:09:51;;;;;;;;;;;;;;;27.94;21.12;99623.50;5096569;28;1110;-14
2023/02/25 12:12:22;;;;;;;;;;;;;;;28.41;20.32;99614.25;5099098;28;1944;-14
2023/02/25 12:14:52;;;;;;;;;;;;;;;28.15;20.67;99629.59;5099305;28;1094;-14
2023/02/25 12:17:53;;;;;;;;;;;;;;;28.04;20.40;99595.16;5091084;28;1199;-15
2023/02/25 12:20:33;;;;;;;;;;;;;;;28.34;20.45;99598.06;4978134;28;1427;-13
2023/02/25 12:22:58;;;;;;;;;;;;;;;28.26;20.42;99597.50;5071308;28;1180;-13
2023/02/25 12:25:27;;;;;;;;;;;;;;;28.01;20.31;99609.09;5099378;28;1062;-15
2023/02/25 12:28:02;;;;;;;;;;;;;;;27.90;20.45;99586.28;5071601;28;1083;-14
2023/02/25 12:30:34;;;;;;;;;;;;;;;28.47;20.22;99583.66;5067186;28;1202;-15
2023/02/25 12:33:17;;;;;;;;;;;;;;;28.11;20.69;99579.72;5089306;28;1964;-14
2023/02/25 12:35:43;;;;;;;;;;;;;;;28.05;20.52;99599.50;5085177;28;1083;-15
2023/02/25 12:38:27;;;;;;;;;;;;;;;27.97;20.59;99574.41;5088154;28;1212;-15
2023/02/25 12:41:08;;;;;;;;;;;;;;;28.35;20.56;99579.97;5079803;28;927;-15
2023/02/25 12:43:46;;;;;;;;;;;;;;;28.03;20.47;99569.19;5070403;28;1121;-15
2023/02/25 12:46:13;;;;;;;;;;;;;;;27.90;20.54;99572.75;5069900;28;897;-15
2023/02/25 12:48:57;;;;;;;;;;;;;;;28.10;20.71;99572.63;5092144;28;1106;-15
2023/02/25 12:51:22;;;;;;;;;;;;;;;27.60;21.20;99564.19;5089366;28;994;-15
2023/02/25 12:53:59;;;;;;;;;;;;;;;27.51;21.23;99566.28;5075906;28;1902;-14
2023/02/25 12:56:52;;;;;;;;;;;;;;;28.27;20.63;99555.88;5093984;28;1047;-15
2023/02/25 12:59:35;;;;;;;;;;;;;;;27.90;21.03;99551.16;5043432;28;1239;-14